createdAt,value
2024-01-30T00:02:11.571Z,6.22
2024-01-30T00:04:41.142Z,6.24
2024-01-30T00:07:09.434Z,6.28
2024-01-30T00:09:37.738Z,6.34
2024-01-30T00:12:07.487Z,6.37
2024-01-30T00:14:35.735Z,6.40
2024-01-30T00:17:04.090Z,6.41
2024-01-30T00:19:32.414Z,6.39
2024-01-30T00:22:02.107Z,6.37
2024-01-30T00:24:30.347Z,6.42
2024-01-30T00:26:58.504Z,6.44
2024-01-30T00:29:31.636Z,6.52
2024-01-30T00:32:00.058Z,6.56
2024-01-30T00:34:28.365Z,6.61
2024-01-30T00:36:57.002Z,6.60
2024-01-30T00:39:26.740Z,6.54
2024-01-30T00:41:54.931Z,6.51
2024-01-30T00:44:23.174Z,6.50
2024-01-30T00:46:51.328Z,6.50
2024-01-30T00:49:19.676Z,6.51
2024-01-30T00:51:48.759Z,6.49
2024-01-30T00:54:17.026Z,6.48
2024-01-30T00:56:47.203Z,6.46
2024-01-30T00:59:15.323Z,6.43
2024-01-30T01:01:43.596Z,6.36
2024-01-30T01:04:12.076Z,6.31
2024-01-30T01:06:40.370Z,6.26
2024-01-30T01:09:08.560Z,6.27
2024-01-30T01:11:36.860Z,6.25
2024-01-30T01:14:06.523Z,6.19
2024-01-30T01:16:35.741Z,6.16
2024-01-30T01:19:04.773Z,6.11
2024-01-30T01:21:33.104Z,6.06
2024-01-30T01:24:01.225Z,6.08
2024-01-30T01:26:29.424Z,6.07
2024-01-30T01:28:57.584Z,6.03
2024-01-30T01:31:30.924Z,5.99
2024-01-30T01:33:59.426Z,5.93
2024-01-30T01:36:27.664Z,5.87
2024-01-30T01:38:55.822Z,5.84
2024-01-30T01:41:23.977Z,5.81
2024-01-30T01:43:52.222Z,5.77
2024-01-30T01:46:20.614Z,5.72
2024-01-30T01:48:50.464Z,5.69
2024-01-30T01:51:19.379Z,5.67
2024-01-30T01:53:47.941Z,5.64
2024-01-30T01:56:16.896Z,5.66
2024-01-30T01:58:48.780Z,5.65
2024-01-30T02:01:18.620Z,5.67
2024-01-30T02:03:48.046Z,5.68
2024-01-30T02:06:18.789Z,5.58
2024-01-30T02:08:46.949Z,5.50
2024-01-30T02:11:15.283Z,5.48
2024-01-30T02:13:43.755Z,5.38
2024-01-30T02:16:11.938Z,5.26
2024-01-30T02:18:44.660Z,5.24
2024-01-30T02:21:14.862Z,5.21
2024-01-30T02:23:45.512Z,5.15
2024-01-30T02:26:14.042Z,5.17
2024-01-30T02:28:42.148Z,5.13
2024-01-30T02:31:10.409Z,5.10
2024-01-30T02:33:38.736Z,5.05
2024-01-30T02:36:07.554Z,5.01
2024-01-30T02:38:37.191Z,5.02
2024-01-30T02:41:05.541Z,5.01
2024-01-30T02:43:33.703Z,5.02
2024-01-30T02:46:02.325Z,5.05
2024-01-30T02:48:30.708Z,5.07
2024-01-30T02:50:59.211Z,5.10
2024-01-30T02:53:27.309Z,5.16
2024-01-30T02:55:56.899Z,5.18
2024-01-30T02:58:25.181Z,5.20
2024-01-30T03:00:53.583Z,5.22
2024-01-30T03:03:21.886Z,5.24
2024-01-30T03:05:50.318Z,5.28
2024-01-30T03:08:18.645Z,5.26
2024-01-30T03:10:46.801Z,5.32
2024-01-30T03:13:16.497Z,5.36
2024-01-30T03:15:44.787Z,5.40
2024-01-30T03:18:13.154Z,5.43
2024-01-30T03:20:41.588Z,5.39
2024-01-30T03:23:09.800Z,5.31
2024-01-30T03:25:37.962Z,5.24
2024-01-30T03:28:07.163Z,5.22
2024-01-30T03:30:36.876Z,5.21
2024-01-30T03:33:05.482Z,5.17
2024-01-30T03:35:33.793Z,5.10
2024-01-30T03:38:02.000Z,5.06
2024-01-30T03:40:30.134Z,5.05
2024-01-30T03:42:59.176Z,5.07
2024-01-30T03:45:28.629Z,5.02
2024-01-30T03:47:58.355Z,5.05
2024-01-30T03:50:26.618Z,5.05
2024-01-30T03:52:54.809Z,5.03
2024-01-30T03:55:23.085Z,5.08
2024-01-30T03:57:51.349Z,5.16
2024-01-30T04:00:20.004Z,5.22
2024-01-30T04:02:48.202Z,5.23
2024-01-30T04:05:18.179Z,5.17
2024-01-30T04:07:46.492Z,5.13
2024-01-30T04:10:14.760Z,5.05
2024-01-30T04:12:43.548Z,4.99
2024-01-30T04:15:12.203Z,4.90
2024-01-30T04:17:40.884Z,4.83
2024-01-30T04:20:10.067Z,4.71
2024-01-30T04:22:39.924Z,4.66
2024-01-30T04:25:09.120Z,4.60
2024-01-30T04:27:37.299Z,4.57
2024-01-30T04:30:06.256Z,4.51
2024-01-30T04:32:34.985Z,4.49
2024-01-30T04:35:05.320Z,4.44
2024-01-30T04:37:35.092Z,4.43
2024-01-30T04:40:05.281Z,4.49
2024-01-30T04:42:33.527Z,4.55
2024-01-30T04:45:01.768Z,4.67
2024-01-30T04:47:30.952Z,4.73
2024-01-30T04:49:59.348Z,4.73
2024-01-30T04:52:27.806Z,4.75
2024-01-30T04:54:56.016Z,4.65
2024-01-30T04:57:25.663Z,4.66
2024-01-30T04:59:53.840Z,4.69
2024-01-30T05:02:22.048Z,4.71
2024-01-30T05:04:50.279Z,4.71
2024-01-30T05:07:18.740Z,4.77
2024-01-30T05:09:47.040Z,4.77
2024-01-30T05:12:15.151Z,4.72
2024-01-30T05:14:44.884Z,4.67
2024-01-30T05:17:14.109Z,4.65
2024-01-30T05:19:42.293Z,4.62
2024-01-30T05:22:10.457Z,4.61
2024-01-30T05:24:39.660Z,4.63
2024-01-30T05:27:07.857Z,4.59
2024-01-30T05:29:36.085Z,4.57
2024-01-30T05:32:07.725Z,4.59
2024-01-30T05:34:35.898Z,4.60
2024-01-30T05:37:04.285Z,4.61
2024-01-30T05:39:34.348Z,4.65
2024-01-30T05:42:02.784Z,4.67
2024-01-30T05:44:31.052Z,4.72
2024-01-30T05:46:59.260Z,4.79
2024-01-30T05:49:29.448Z,4.84
2024-01-30T05:51:57.860Z,4.87
2024-01-30T05:54:26.120Z,4.91
2024-01-30T05:56:54.363Z,4.96
2024-01-30T05:59:22.481Z,5.01
2024-01-30T06:01:51.180Z,5.04
2024-01-30T06:04:19.541Z,5.01
2024-01-30T06:06:49.252Z,5.00
2024-01-30T06:09:17.725Z,4.99
2024-01-30T06:11:45.964Z,4.98
2024-01-30T06:14:14.221Z,4.99
2024-01-30T06:16:42.443Z,5.01
2024-01-30T06:19:10.667Z,4.99
2024-01-30T06:21:39.665Z,4.94
2024-01-30T06:24:09.938Z,4.90
2024-01-30T06:26:38.579Z,4.85
2024-01-30T06:29:06.758Z,4.80
2024-01-30T06:31:34.974Z,4.77
2024-01-30T06:34:03.291Z,4.77
2024-01-30T06:36:31.647Z,4.80
2024-01-30T06:38:59.802Z,4.83
2024-01-30T06:41:29.523Z,4.84
2024-01-30T06:43:57.807Z,4.84
2024-01-30T06:46:26.095Z,4.81
2024-01-30T06:48:54.437Z,4.84
2024-01-30T06:51:22.795Z,4.83
2024-01-30T06:53:51.069Z,4.84
2024-01-30T06:56:22.061Z,4.84
2024-01-30T06:58:52.226Z,4.88
2024-01-30T07:01:20.841Z,4.90
2024-01-30T07:03:49.207Z,4.91
2024-01-30T07:06:17.544Z,4.95
2024-01-30T07:08:45.733Z,5.00
2024-01-30T07:11:21.199Z,5.08
2024-01-30T07:13:49.669Z,5.11
2024-01-30T07:16:19.680Z,5.07
2024-01-30T07:18:48.178Z,5.05
2024-01-30T07:21:16.515Z,5.06
2024-01-30T07:23:45.152Z,5.11
2024-01-30T07:26:13.893Z,5.16
2024-01-30T07:28:42.482Z,5.14
2024-01-30T07:31:10.711Z,5.05
2024-01-30T07:33:40.538Z,5.00
2024-01-30T07:36:09.638Z,4.92
2024-01-30T07:38:37.775Z,4.84
2024-01-30T07:41:06.414Z,4.79
2024-01-30T07:43:35.623Z,4.79
2024-01-30T07:46:04.226Z,4.73
2024-01-30T07:48:32.444Z,4.64
2024-01-30T07:51:02.030Z,4.64
2024-01-30T07:53:30.238Z,4.67
2024-01-30T07:55:58.958Z,4.64
2024-01-30T07:58:28.735Z,4.59
2024-01-30T08:00:59.655Z,4.58
2024-01-30T08:03:28.433Z,4.65
2024-01-30T08:05:56.721Z,4.73
2024-01-30T08:08:27.753Z,4.82
2024-01-30T08:10:55.974Z,4.86
2024-01-30T08:13:24.407Z,4.91
2024-01-30T08:15:52.911Z,4.94
2024-01-30T08:18:21.264Z,5.03
2024-01-30T08:20:50.429Z,5.11
2024-01-30T08:23:18.612Z,5.15
2024-01-30T08:25:48.238Z,5.22
2024-01-30T08:28:18.261Z,5.34
2024-01-30T08:30:47.841Z,5.44
2024-01-30T08:33:16.180Z,5.49
2024-01-30T08:35:44.452Z,5.49
2024-01-30T08:38:13.862Z,5.52
2024-01-30T08:40:42.105Z,5.59
2024-01-30T08:43:12.310Z,5.69
2024-01-30T08:45:40.769Z,5.86
2024-01-30T08:48:09.664Z,6.03
2024-01-30T08:50:38.067Z,6.17
2024-01-30T08:53:06.938Z,6.27
2024-01-30T08:55:35.185Z,6.38
2024-01-30T08:58:05.256Z,6.47
2024-01-30T09:00:35.155Z,6.51
2024-01-30T09:03:03.416Z,6.46
2024-01-30T09:05:31.828Z,6.35
2024-01-30T09:08:00.107Z,6.17
2024-01-30T09:10:28.706Z,6.01
2024-01-30T09:12:56.944Z,5.86
2024-01-30T09:15:26.809Z,5.80
2024-01-30T09:17:57.009Z,5.87
2024-01-30T09:20:25.231Z,5.91
2024-01-30T09:22:53.521Z,5.95
2024-01-30T09:25:21.797Z,6.06
2024-01-30T09:27:50.255Z,6.21
2024-01-30T09:30:19.401Z,6.33
2024-01-30T09:32:47.585Z,6.35
2024-01-30T09:35:17.827Z,6.40
2024-01-30T09:37:46.319Z,6.44
2024-01-30T09:40:14.677Z,6.42
2024-01-30T09:42:45.719Z,6.36
2024-01-30T09:45:16.862Z,6.35
2024-01-30T09:47:47.106Z,6.45
2024-01-30T09:50:17.926Z,6.52
2024-01-30T09:52:47.138Z,6.61
2024-01-30T09:55:15.875Z,6.80
2024-01-30T09:57:44.736Z,7.07
2024-01-30T10:00:14.858Z,7.30
2024-01-30T10:02:43.095Z,7.53
2024-01-30T10:05:11.640Z,7.76
2024-01-30T10:07:41.310Z,8.04
2024-01-30T10:10:10.296Z,8.25
2024-01-30T10:12:38.529Z,8.33
2024-01-30T10:15:10.422Z,8.31
2024-01-30T10:17:40.575Z,8.25
2024-01-30T10:20:10.344Z,8.19
2024-01-30T10:22:38.725Z,8.05
2024-01-30T10:25:09.833Z,8.04
2024-01-30T10:27:38.007Z,7.97
2024-01-30T10:30:07.649Z,7.80
2024-01-30T10:32:36.154Z,7.68
2024-01-30T10:35:04.768Z,7.56
2024-01-30T10:37:34.867Z,7.42
2024-01-30T10:40:07.112Z,7.32
2024-01-30T10:42:39.175Z,7.24
2024-01-30T10:45:10.812Z,7.15
2024-01-30T10:47:39.691Z,7.11
2024-01-30T10:50:10.288Z,7.20
2024-01-30T10:52:39.401Z,7.33
2024-01-30T10:55:08.704Z,7.48
2024-01-30T10:57:39.130Z,7.71
2024-01-30T11:00:12.533Z,8.01
2024-01-30T11:02:43.349Z,8.46
2024-01-30T11:05:12.958Z,9.50
2024-01-30T11:07:42.678Z,10.11
2024-01-30T11:10:14.635Z,11.75
2024-01-30T11:12:45.891Z,14.07
2024-01-30T11:15:15.801Z,16.22
2024-01-30T11:17:45.622Z,17.48
2024-01-30T11:20:15.998Z,17.91
2024-01-30T11:22:48.730Z,17.44
2024-01-30T11:25:18.465Z,16.54
2024-01-30T11:27:49.342Z,15.86
2024-01-30T11:30:25.196Z,15.95
2024-01-30T11:33:06.071Z,16.79
2024-01-30T11:35:35.914Z,16.86
2024-01-30T11:38:05.921Z,16.54
2024-01-30T11:40:35.514Z,16.07
2024-01-30T11:43:07.115Z,15.67
2024-01-30T11:45:36.600Z,15.37
2024-01-30T11:48:06.294Z,15.33
2024-01-30T11:50:36.323Z,15.32
2024-01-30T11:53:05.314Z,15.28
2024-01-30T11:55:34.909Z,15.05
2024-01-30T11:58:06.797Z,14.93
2024-01-30T12:00:36.199Z,14.52
2024-01-30T12:03:07.684Z,13.98
2024-01-30T12:05:35.999Z,13.46
2024-01-30T12:08:04.456Z,13.18
2024-01-30T12:10:32.843Z,13.09
2024-01-30T12:13:01.908Z,13.06
2024-01-30T12:15:31.929Z,13.06
2024-01-30T12:18:08.604Z,13.08
2024-01-30T12:20:37.865Z,13.01
2024-01-30T12:23:06.627Z,12.89
2024-01-30T12:25:35.301Z,12.76
2024-01-30T12:28:04.119Z,12.63
2024-01-30T12:30:34.167Z,12.47
2024-01-30T12:33:02.901Z,12.36
2024-01-30T12:35:33.549Z,12.31
2024-01-30T12:38:02.616Z,12.29
2024-01-30T12:40:31.196Z,12.31
2024-01-30T12:42:59.907Z,12.32
2024-01-30T12:45:28.151Z,12.33
2024-01-30T12:47:59.519Z,12.28
2024-01-30T12:50:27.888Z,12.16
2024-01-30T12:52:57.083Z,12.12
2024-01-30T12:55:26.134Z,12.09
2024-01-30T12:57:54.400Z,12.07
2024-01-30T13:00:23.454Z,12.00
2024-01-30T13:02:51.652Z,11.88
2024-01-30T13:05:21.890Z,11.87
2024-01-30T13:07:50.258Z,11.78
2024-01-30T13:10:18.617Z,11.76
2024-01-30T13:12:46.918Z,11.68
2024-01-30T13:15:15.317Z,11.67
2024-01-30T13:17:45.282Z,11.67
2024-01-30T13:20:13.761Z,11.69
2024-01-30T13:22:44.143Z,11.77
2024-01-30T13:25:13.203Z,11.89
2024-01-30T13:27:41.508Z,12.02
2024-01-30T13:30:11.438Z,12.11
2024-01-30T13:32:42.267Z,12.14
2024-01-30T13:35:10.908Z,12.20
2024-01-30T13:37:39.420Z,12.37
2024-01-30T13:40:13.780Z,12.57
2024-01-30T13:42:42.946Z,12.64
2024-01-30T13:45:12.330Z,12.63
2024-01-30T13:47:40.972Z,12.66
2024-01-30T13:50:11.785Z,12.67
2024-01-30T13:52:44.448Z,12.69
2024-01-30T13:55:15.512Z,12.77
2024-01-30T13:57:44.026Z,12.85
2024-01-30T14:00:14.091Z,12.88
2024-01-30T14:02:42.367Z,12.85
2024-01-30T14:05:11.018Z,12.79
2024-01-30T14:07:40.857Z,12.78
2024-01-30T14:10:12.896Z,12.74
2024-01-30T14:12:45.294Z,12.68
2024-01-30T14:15:23.623Z,12.65
2024-01-30T14:17:57.436Z,12.52
2024-01-30T14:20:26.089Z,12.42
2024-01-30T14:22:57.340Z,12.36
2024-01-30T14:25:26.581Z,12.32
2024-01-30T14:27:56.497Z,12.26
2024-01-30T14:30:24.901Z,12.24
2024-01-30T14:32:53.262Z,12.21
2024-01-30T14:35:22.180Z,12.19
2024-01-30T14:37:50.585Z,12.09
2024-01-30T14:40:19.906Z,12.03
2024-01-30T14:42:48.367Z,11.94
2024-01-30T14:45:20.077Z,11.92
2024-01-30T14:47:48.728Z,11.91
2024-01-30T14:50:18.238Z,11.93
2024-01-30T14:52:46.728Z,11.94
2024-01-30T14:55:15.087Z,12.00
2024-01-30T14:57:46.556Z,12.05
2024-01-30T15:00:18.243Z,12.09
2024-01-30T15:02:48.629Z,12.18
2024-01-30T15:05:17.611Z,12.32
2024-01-30T15:07:46.327Z,12.46
2024-01-30T15:10:14.717Z,12.59
2024-01-30T15:12:43.240Z,12.73
2024-01-30T15:15:11.818Z,12.87
2024-01-30T15:17:42.297Z,12.91
2024-01-30T15:20:11.510Z,12.89
2024-01-30T15:22:41.761Z,12.84
2024-01-30T15:25:10.171Z,12.78
2024-01-30T15:27:38.541Z,12.74
2024-01-30T15:30:08.393Z,12.67
2024-01-30T15:32:36.747Z,12.57
2024-01-30T15:35:07.989Z,12.51
2024-01-30T15:37:36.439Z,12.39
2024-01-30T15:40:07.779Z,12.30
2024-01-30T15:42:36.367Z,12.26
2024-01-30T15:45:04.860Z,12.24
2024-01-30T15:47:33.300Z,12.22
2024-01-30T15:50:01.653Z,12.22
2024-01-30T15:52:31.573Z,12.23
2024-01-30T15:55:00.074Z,12.23
2024-01-30T15:57:30.192Z,12.20
2024-01-30T15:59:59.170Z,12.16
2024-01-30T16:02:27.508Z,12.10
2024-01-30T16:04:55.978Z,12.03
2024-01-30T16:07:24.418Z,11.94
2024-01-30T16:09:54.248Z,11.83
2024-01-30T16:12:22.447Z,11.74
2024-01-30T16:14:50.664Z,11.68
2024-01-30T16:17:19.475Z,11.62
2024-01-30T16:19:47.852Z,11.56
2024-01-30T16:22:16.183Z,11.47
2024-01-30T16:24:44.449Z,11.39
2024-01-30T16:27:14.325Z,11.26
2024-01-30T16:29:42.529Z,11.15
2024-01-30T16:32:10.696Z,11.06
2024-01-30T16:34:38.986Z,10.98
2024-01-30T16:37:07.929Z,10.91
2024-01-30T16:39:36.134Z,10.87
2024-01-30T16:42:04.391Z,10.85
2024-01-30T16:44:34.157Z,10.82
2024-01-30T16:47:02.453Z,10.78
2024-01-30T16:49:30.951Z,10.72
2024-01-30T16:52:02.147Z,10.68
2024-01-30T16:54:30.977Z,10.61
2024-01-30T16:56:59.178Z,10.50
2024-01-30T16:59:27.338Z,10.41
2024-01-30T17:01:56.993Z,10.39
2024-01-30T17:04:25.486Z,10.32
2024-01-30T17:06:54.548Z,10.28
2024-01-30T17:09:23.825Z,10.24
2024-01-30T17:11:52.310Z,10.18
2024-01-30T17:14:20.556Z,10.13
2024-01-30T17:16:54.115Z,10.11
2024-01-30T17:19:26.660Z,10.12
2024-01-30T17:21:55.038Z,10.10
2024-01-30T17:24:30.138Z,10.05
2024-01-30T17:27:02.718Z,10.01
2024-01-30T17:29:31.131Z,9.98
2024-01-30T17:31:59.689Z,9.94
2024-01-30T17:34:29.766Z,9.90
2024-01-30T17:36:58.206Z,9.90
2024-01-30T17:39:26.552Z,9.89
2024-01-30T17:41:54.772Z,9.89
2024-01-30T17:44:23.324Z,9.84
2024-01-30T17:46:53.393Z,9.85
2024-01-30T17:49:21.741Z,9.82
2024-01-30T17:51:51.447Z,9.83
2024-01-30T17:54:19.702Z,9.81
2024-01-30T17:56:47.987Z,9.80
2024-01-30T17:59:22.042Z,9.85
2024-01-30T18:01:50.578Z,9.89
2024-01-30T18:04:20.126Z,9.88
2024-01-30T18:06:53.007Z,9.86
2024-01-30T18:09:22.056Z,9.83
2024-01-30T18:11:50.242Z,9.79
2024-01-30T18:14:18.840Z,9.74
2024-01-30T18:16:46.953Z,9.72
2024-01-30T18:19:15.321Z,9.67
2024-01-30T18:21:44.058Z,9.64
2024-01-30T18:24:13.723Z,9.63
2024-01-30T18:26:42.204Z,9.64
2024-01-30T18:29:10.480Z,9.63
2024-01-30T18:31:43.185Z,9.60
2024-01-30T18:34:11.565Z,9.58
2024-01-30T18:36:42.460Z,9.53
2024-01-30T18:39:11.651Z,9.44
2024-01-30T18:41:41.630Z,9.37
2024-01-30T18:44:09.892Z,9.30
2024-01-30T18:46:38.392Z,9.25
2024-01-30T18:49:07.484Z,9.23
2024-01-30T18:51:35.856Z,9.18
2024-01-30T18:54:04.166Z,9.12
2024-01-30T18:56:32.480Z,9.09
2024-01-30T18:59:02.317Z,9.10
2024-01-30T19:01:30.636Z,9.09
2024-01-30T19:03:58.993Z,9.10
2024-01-30T19:06:27.588Z,9.11
2024-01-30T19:08:55.846Z,9.13
2024-01-30T19:11:24.062Z,9.15
2024-01-30T19:13:52.156Z,9.16
2024-01-30T19:16:21.752Z,9.16
2024-01-30T19:18:51.568Z,9.17
2024-01-30T19:21:19.798Z,9.17
2024-01-30T19:23:47.964Z,9.15
2024-01-30T19:26:16.353Z,9.12
2024-01-30T19:28:45.316Z,9.12
2024-01-30T19:31:14.461Z,9.11
2024-01-30T19:33:45.085Z,9.07
2024-01-30T19:36:13.452Z,9.03
2024-01-30T19:38:41.527Z,8.99
2024-01-30T19:41:13.418Z,8.92
2024-01-30T19:43:41.653Z,8.86
2024-01-30T19:46:12.109Z,8.75
2024-01-30T19:48:41.162Z,8.62
2024-01-30T19:51:10.886Z,8.45
2024-01-30T19:53:40.018Z,8.35
2024-01-30T19:56:08.574Z,8.31
2024-01-30T19:58:36.825Z,8.34
2024-01-30T20:01:06.415Z,8.36
2024-01-30T20:03:35.377Z,8.28
2024-01-30T20:06:03.992Z,8.15
2024-01-30T20:08:35.813Z,8.04
2024-01-30T20:11:05.133Z,7.99
2024-01-30T20:13:33.556Z,7.98
2024-01-30T20:16:02.279Z,7.98
2024-01-30T20:18:31.758Z,7.94
2024-01-30T20:21:00.197Z,7.84
2024-01-30T20:23:28.414Z,7.78
2024-01-30T20:25:59.275Z,7.73
2024-01-30T20:28:27.978Z,7.72
2024-01-30T20:30:56.260Z,7.74
2024-01-30T20:33:25.801Z,7.75
2024-01-30T20:35:54.121Z,7.75
2024-01-30T20:38:22.898Z,7.74
2024-01-30T20:40:51.118Z,7.72
2024-01-30T20:43:20.802Z,7.69
2024-01-30T20:45:48.977Z,7.71
2024-01-30T20:48:18.858Z,7.78
2024-01-30T20:50:47.225Z,7.85
2024-01-30T20:53:15.449Z,7.91
2024-01-30T20:55:43.795Z,7.94
2024-01-30T20:58:12.080Z,7.97
2024-01-30T21:00:41.720Z,7.94
2024-01-30T21:03:09.921Z,7.90
2024-01-30T21:05:38.258Z,7.87
2024-01-30T21:08:07.897Z,7.89
2024-01-30T21:10:36.373Z,7.88
2024-01-30T21:13:04.863Z,7.85
2024-01-30T21:15:32.997Z,7.82
2024-01-30T21:18:04.800Z,7.77
2024-01-30T21:20:33.319Z,7.72
2024-01-30T21:23:01.760Z,7.67
2024-01-30T21:25:29.873Z,7.64
2024-01-30T21:27:58.199Z,7.60
2024-01-30T21:30:27.034Z,7.55
2024-01-30T21:32:55.302Z,7.54
2024-01-30T21:35:25.211Z,7.51
2024-01-30T21:37:53.400Z,7.47
2024-01-30T21:40:21.576Z,7.46
2024-01-30T21:42:52.516Z,7.42
2024-01-30T21:45:22.965Z,7.37
2024-01-30T21:47:51.312Z,7.32
2024-01-30T21:50:21.428Z,7.27
2024-01-30T21:52:51.129Z,7.27
2024-01-30T21:55:19.448Z,7.27
2024-01-30T21:57:47.692Z,7.26
2024-01-30T22:00:17.136Z,7.24
2024-01-30T22:02:45.437Z,7.19
2024-01-30T22:05:13.666Z,7.08
2024-01-30T22:07:43.068Z,7.03
2024-01-30T22:10:13.415Z,7.00
2024-01-30T22:12:41.809Z,6.98
2024-01-30T22:15:10.893Z,6.99
2024-01-30T22:17:39.038Z,6.96
2024-01-30T22:20:10.589Z,6.96
2024-01-30T22:22:38.947Z,6.93
2024-01-30T22:25:08.720Z,6.93
2024-01-30T22:27:42.030Z,6.91
2024-01-30T22:30:10.691Z,6.88
2024-01-30T22:32:38.929Z,6.83
2024-01-30T22:35:11.598Z,6.80
2024-01-30T22:37:39.976Z,6.78
2024-01-30T22:40:09.650Z,6.77
2024-01-30T22:42:39.412Z,6.75
2024-01-30T22:45:08.926Z,6.74
2024-01-30T22:47:37.245Z,6.70
2024-01-30T22:50:06.713Z,6.68
2024-01-30T22:52:35.107Z,6.61
2024-01-30T22:55:04.144Z,6.51
2024-01-30T22:57:33.204Z,6.49
2024-01-30T23:00:08.843Z,6.44
2024-01-30T23:02:37.082Z,6.44
2024-01-30T23:05:06.182Z,6.46
2024-01-30T23:07:37.162Z,6.46
2024-01-30T23:10:06.783Z,6.43
2024-01-30T23:12:34.925Z,6.42
2024-01-30T23:15:05.156Z,6.45
2024-01-30T23:17:33.927Z,6.45
2024-01-30T23:20:03.112Z,6.46
2024-01-30T23:22:31.898Z,6.46
2024-01-30T23:25:00.205Z,6.45
2024-01-30T23:27:28.446Z,6.41
2024-01-30T23:29:56.570Z,6.38
2024-01-30T23:32:34.262Z,6.36
2024-01-30T23:35:09.069Z,6.32
2024-01-30T23:37:37.701Z,6.33
2024-01-30T23:40:10.122Z,6.32
2024-01-30T23:42:38.244Z,6.30
2024-01-30T23:45:07.339Z,6.28
2024-01-30T23:47:36.985Z,6.25
2024-01-30T23:50:06.046Z,6.26
2024-01-30T23:52:35.148Z,6.26
2024-01-30T23:55:03.518Z,6.24
2024-01-30T23:57:31.713Z,6.19
